createdAt,value
2019-05-23T00:02:29.764Z,9.70
2019-05-23T00:05:16.398Z,8.93
2019-05-23T00:07:46.729Z,10.27
2019-05-23T00:10:30.155Z,9.60
2019-05-23T00:13:03.930Z,9.50
2019-05-23T00:15:37.547Z,10.53
2019-05-23T00:18:06.555Z,9.77
2019-05-23T00:20:37.928Z,9.87
2019-05-23T00:23:09.967Z,8.73
2019-05-23T00:25:40.520Z,8.93
2019-05-23T00:28:11.638Z,10.00
2019-05-23T00:30:51.899Z,8.37
2019-05-23T00:33:25.755Z,9.10
2019-05-23T00:35:56.337Z,9.17
2019-05-23T00:38:27.784Z,9.50
2019-05-23T00:40:57.733Z,9.80
2019-05-23T00:43:27.757Z,8.27
2019-05-23T00:45:58.246Z,9.20
2019-05-23T00:48:27.443Z,10.73
2019-05-23T00:50:57.359Z,9.83
2019-05-23T00:53:26.227Z,8.70
2019-05-23T00:55:57.510Z,10.40
2019-05-23T00:58:28.255Z,9.90
2019-05-23T01:00:57.836Z,9.77
2019-05-23T01:03:30.153Z,10.27
2019-05-23T01:06:01.707Z,8.70
2019-05-23T01:08:51.651Z,9.50
2019-05-23T01:11:22.840Z,9.60
2019-05-23T01:13:54.148Z,10.20
2019-05-23T01:16:25.385Z,10.00
2019-05-23T01:18:54.276Z,10.00
2019-05-23T01:21:34.864Z,9.27
2019-05-23T01:24:08.441Z,9.47
2019-05-23T01:26:39.382Z,9.30
2019-05-23T01:29:09.789Z,10.63
2019-05-23T01:31:41.115Z,9.37
2019-05-23T01:34:12.402Z,8.83
2019-05-23T01:36:42.835Z,8.50
2019-05-23T01:39:13.666Z,8.70
2019-05-23T01:41:43.639Z,8.27
2019-05-23T01:44:15.252Z,9.73
2019-05-23T01:46:46.788Z,8.60
2019-05-23T01:49:17.320Z,8.80
2019-05-23T01:51:46.188Z,7.30
2019-05-23T01:54:16.024Z,7.77
2019-05-23T01:56:46.504Z,7.93
2019-05-23T01:59:17.071Z,7.20
2019-05-23T02:01:47.355Z,8.30
2019-05-23T02:04:16.293Z,7.23
2019-05-23T02:06:46.296Z,6.80
2019-05-23T02:09:16.756Z,7.20
2019-05-23T02:11:45.658Z,7.60
2019-05-23T02:14:16.157Z,7.93
2019-05-23T02:16:47.864Z,7.20
2019-05-23T02:19:16.806Z,7.57
2019-05-23T02:21:45.983Z,7.63
2019-05-23T02:24:16.539Z,7.53
2019-05-23T02:26:45.426Z,7.63
2019-05-23T02:29:16.669Z,7.10
2019-05-23T02:31:45.664Z,7.17
2019-05-23T02:34:15.584Z,7.20
2019-05-23T02:36:44.477Z,7.00
2019-05-23T02:39:23.701Z,7.07
2019-05-23T02:42:00.706Z,6.97
2019-05-23T02:44:33.220Z,6.70
2019-05-23T02:47:16.063Z,7.20
2019-05-23T02:49:52.757Z,6.97
2019-05-23T02:52:38.801Z,7.13
2019-05-23T02:55:10.709Z,6.70
2019-05-23T02:57:42.070Z,7.17
2019-05-23T03:00:50.743Z,7.53
2019-05-23T03:03:09.307Z,6.60
2019-05-23T03:05:41.139Z,6.90
2019-05-23T03:08:12.867Z,6.17
2019-05-23T03:11:12.658Z,6.27
2019-05-23T03:13:42.986Z,6.90
2019-05-23T03:16:16.380Z,6.23
2019-05-23T03:18:48.249Z,6.20
2019-05-23T03:21:20.408Z,5.90
2019-05-23T03:23:50.735Z,6.27
2019-05-23T03:26:47.276Z,6.17
2019-05-23T03:29:17.697Z,5.30
2019-05-23T03:31:48.202Z,7.20
2019-05-23T03:34:19.718Z,6.97
2019-05-23T03:36:50.179Z,6.87
2019-05-23T03:39:19.099Z,6.03
2019-05-23T03:41:49.714Z,5.07
2019-05-23T03:44:20.261Z,5.30
2019-05-23T03:46:50.789Z,5.70
2019-05-23T03:49:21.745Z,5.60
2019-05-23T03:51:51.484Z,5.83
2019-05-23T03:54:22.068Z,4.93
2019-05-23T03:56:50.928Z,6.30
2019-05-23T03:59:22.844Z,4.67
2019-05-23T04:01:53.347Z,4.37
2019-05-23T04:04:22.751Z,4.43
2019-05-23T04:06:51.632Z,4.80
2019-05-23T04:09:22.275Z,5.37
2019-05-23T04:11:53.517Z,5.43
2019-05-23T04:14:24.195Z,4.90
2019-05-23T04:16:54.680Z,4.43
2019-05-23T04:19:25.226Z,4.90
2019-05-23T04:21:55.996Z,4.03
2019-05-23T04:24:26.377Z,4.37
2019-05-23T04:26:56.382Z,5.07
2019-05-23T04:29:26.066Z,4.90
2019-05-23T04:32:06.842Z,4.53
2019-05-23T04:34:27.055Z,4.40
2019-05-23T04:36:58.092Z,5.00
2019-05-23T04:39:28.546Z,5.20
2019-05-23T04:41:57.619Z,5.17
2019-05-23T04:44:28.258Z,4.57
2019-05-23T04:46:57.132Z,4.73
2019-05-23T04:49:26.750Z,5.00
2019-05-23T04:51:58.179Z,5.33
2019-05-23T04:54:28.626Z,4.97
2019-05-23T04:56:59.377Z,4.83
2019-05-23T04:59:30.662Z,5.37
2019-05-23T05:02:01.304Z,4.87
2019-05-23T05:04:31.559Z,5.53
2019-05-23T05:07:02.196Z,4.80
2019-05-23T05:09:33.321Z,5.17
2019-05-23T05:12:03.815Z,5.13
2019-05-23T05:14:32.705Z,5.53
2019-05-23T05:17:03.944Z,4.80
2019-05-23T05:19:35.151Z,5.00
2019-05-23T05:22:04.267Z,5.20
2019-05-23T05:24:33.196Z,5.23
2019-05-23T05:27:05.759Z,4.97
2019-05-23T05:29:35.456Z,4.27
2019-05-23T05:32:06.463Z,4.47
2019-05-23T05:34:36.171Z,5.10
2019-05-23T05:37:05.165Z,4.60
2019-05-23T05:39:35.431Z,4.67
2019-05-23T05:42:05.911Z,4.17
2019-05-23T05:44:36.257Z,4.60
2019-05-23T05:47:06.768Z,4.73
2019-05-23T05:49:42.058Z,4.70
2019-05-23T05:52:10.079Z,4.50
2019-05-23T05:54:41.367Z,3.90
2019-05-23T05:57:10.206Z,4.30
2019-05-23T05:59:39.057Z,5.00
2019-05-23T06:02:09.637Z,3.93
2019-05-23T06:04:40.477Z,3.83
2019-05-23T06:07:20.014Z,3.33
2019-05-23T06:09:50.646Z,2.90
2019-05-23T06:12:21.174Z,3.80
2019-05-23T06:14:50.167Z,4.10
2019-05-23T06:17:21.324Z,3.30
2019-05-23T06:19:51.063Z,3.00
2019-05-23T06:22:20.956Z,4.70
2019-05-23T06:24:54.858Z,3.60
2019-05-23T06:27:23.544Z,11.70
2019-05-23T06:29:52.524Z,5.20
2019-05-23T06:32:22.940Z,3.50
2019-05-23T12:51:06.515Z,2.70
2019-05-23T12:55:09.193Z,2.00
2019-05-23T12:57:38.502Z,2.40
2019-05-23T13:00:10.475Z,1.67
2019-05-23T13:02:39.459Z,1.77
2019-05-23T13:05:10.402Z,2.20
2019-05-23T13:07:39.319Z,2.23
2019-05-23T13:10:09.844Z,2.27
2019-05-23T13:12:41.135Z,2.10
2019-05-23T13:15:10.876Z,2.10
2019-05-23T13:17:39.869Z,2.23
2019-05-23T13:20:10.461Z,2.50
2019-05-23T13:23:52.818Z,2.70
2019-05-23T13:26:22.421Z,2.70
2019-05-23T13:28:51.312Z,2.47
2019-05-23T13:31:20.307Z,2.57
2019-05-23T13:33:49.772Z,3.10
2019-05-23T13:36:18.702Z,2.80
2019-05-23T13:38:49.332Z,2.23
2019-05-23T13:41:18.222Z,1.93
2019-05-23T13:43:47.421Z,9.83
2019-05-23T13:46:17.134Z,10.67
2019-05-23T13:48:46.841Z,10.00
2019-05-23T13:51:15.834Z,4.70
2019-05-23T13:53:44.738Z,6.50
2019-05-23T13:56:13.616Z,4.43
2019-05-23T13:58:42.610Z,4.53
2019-05-23T14:01:13.800Z,2.20
2019-05-23T14:03:44.145Z,2.40
2019-05-23T14:06:14.725Z,2.50
2019-05-23T14:08:43.608Z,2.70
2019-05-23T14:11:14.105Z,2.10
2019-05-23T14:13:44.848Z,2.50
2019-05-23T14:16:13.961Z,2.10
2019-05-23T14:18:42.842Z,1.80
2019-05-23T14:21:13.420Z,1.87
2019-05-23T14:23:43.971Z,1.97
2019-05-23T14:26:15.154Z,1.77
2019-05-23T14:28:45.068Z,1.93
2019-05-23T14:31:18.772Z,2.17
2019-05-23T14:33:49.416Z,2.00
2019-05-23T14:36:36.727Z,2.00
2019-05-23T14:39:09.926Z,1.87
2019-05-23T14:41:46.490Z,2.50
2019-05-23T14:44:16.914Z,2.10
2019-05-23T14:46:48.001Z,1.80
2019-05-23T14:49:22.177Z,2.10
2019-05-23T14:51:59.156Z,1.73
2019-05-23T14:54:29.682Z,2.10
2019-05-23T14:57:00.215Z,2.07
2019-05-23T14:59:30.127Z,1.77
2019-05-23T15:01:59.830Z,1.80
2019-05-23T15:04:47.982Z,2.50
2019-05-23T15:07:16.884Z,2.20
2019-05-23T15:09:47.690Z,2.00
2019-05-23T15:12:19.357Z,1.83
2019-05-23T15:14:49.089Z,2.37
2019-05-23T15:17:20.755Z,2.23
2019-05-23T15:19:51.149Z,2.00
2019-05-23T15:22:20.730Z,2.10
2019-05-23T15:24:49.932Z,1.90
2019-05-23T15:27:19.011Z,2.20
2019-05-23T15:29:48.047Z,2.17
2019-05-23T15:32:16.938Z,1.67
2019-05-23T15:34:45.831Z,1.80
2019-05-23T15:37:16.252Z,1.70
2019-05-23T15:39:45.391Z,1.90
2019-05-23T15:42:14.347Z,1.90
2019-05-23T15:44:44.709Z,1.87
2019-05-23T15:47:13.765Z,2.20
2019-05-23T15:49:44.260Z,1.90
2019-05-23T15:52:18.817Z,2.03
2019-05-23T15:54:49.448Z,2.07
2019-05-23T15:57:23.835Z,1.70
2019-05-23T15:59:54.306Z,1.77
2019-05-23T16:02:27.901Z,1.83
2019-05-23T16:04:58.373Z,1.97
2019-05-23T16:07:27.545Z,2.80
2019-05-23T16:09:56.537Z,2.10
2019-05-23T16:12:25.464Z,2.20
2019-05-23T16:14:54.447Z,2.30
2019-05-23T16:17:23.493Z,2.13
2019-05-23T16:19:52.735Z,2.37
2019-05-23T16:22:21.685Z,2.80
2019-05-23T16:24:50.679Z,2.57
2019-05-23T16:27:21.208Z,3.67
2019-05-23T16:29:50.102Z,2.87
2019-05-23T16:32:18.944Z,3.20
2019-05-23T16:34:47.887Z,2.50
2019-05-23T16:37:16.888Z,2.50
2019-05-23T16:39:47.915Z,3.60
2019-05-23T16:42:16.939Z,2.70
2019-05-23T16:44:45.808Z,2.60
2019-05-23T16:47:14.685Z,2.67
2019-05-23T16:49:43.539Z,3.03
2019-05-23T16:52:12.619Z,2.33
2019-05-23T16:54:43.063Z,2.57
2019-05-23T16:57:16.515Z,2.60
2019-05-23T16:59:47.848Z,2.50
2019-05-23T17:02:35.477Z,2.40
2019-05-23T17:05:10.712Z,2.70
2019-05-23T17:07:46.779Z,2.10
2019-05-23T17:10:32.666Z,2.33
2019-05-23T17:13:18.301Z,2.30
2019-05-23T17:15:54.540Z,2.13
2019-05-23T17:18:36.789Z,2.17
2019-05-23T17:21:07.246Z,2.40
2019-05-23T17:23:37.665Z,1.70
2019-05-23T17:26:17.121Z,2.00
2019-05-23T17:28:47.734Z,2.43
2019-05-23T17:31:21.112Z,2.43
2019-05-23T17:33:50.866Z,2.50
2019-05-23T17:36:20.044Z,2.40
2019-05-23T17:38:48.936Z,2.00
2019-05-23T17:41:19.485Z,2.00
2019-05-23T17:43:48.450Z,2.20
2019-05-23T17:46:17.349Z,2.30
2019-05-23T17:48:46.243Z,2.00
2019-05-23T17:51:15.251Z,2.20
2019-05-23T17:53:44.298Z,2.20
2019-05-23T17:56:13.548Z,2.53
2019-05-23T17:58:42.631Z,1.87
2019-05-23T18:01:11.679Z,1.80
2019-05-23T18:03:40.513Z,2.40
2019-05-23T18:06:09.612Z,2.70
2019-05-23T18:08:40.060Z,3.50
2019-05-23T18:11:09.004Z,3.23
2019-05-23T18:13:38.023Z,3.00
2019-05-23T18:16:07.399Z,3.20
2019-05-23T18:18:36.434Z,2.73
2019-05-23T18:21:05.429Z,2.67
2019-05-23T18:23:34.578Z,4.30
2019-05-23T18:26:03.436Z,3.40
2019-05-23T18:28:32.626Z,2.60
2019-05-23T18:31:07.618Z,3.03
2019-05-23T18:33:34.103Z,2.23
2019-05-23T18:36:04.980Z,2.00
2019-05-23T18:38:33.819Z,2.20
2019-05-23T18:41:08.736Z,2.47
2019-05-23T18:43:36.405Z,2.27
2019-05-23T18:46:07.628Z,2.00
2019-05-23T18:48:38.175Z,2.90
2019-05-23T18:51:08.677Z,3.67
2019-05-23T18:53:37.575Z,2.67
2019-05-23T18:56:08.103Z,1.90
2019-05-23T18:58:37.097Z,2.33
2019-05-23T19:01:08.344Z,2.17
2019-05-23T19:03:37.846Z,2.20
2019-05-23T19:06:07.872Z,1.87
2019-05-23T19:08:38.061Z,2.10
2019-05-23T19:11:20.078Z,2.53
2019-05-23T19:13:37.960Z,2.30
2019-05-23T19:16:06.958Z,2.40
2019-05-23T19:18:36.507Z,2.00
2019-05-23T19:21:06.634Z,2.13
2019-05-23T19:23:36.093Z,2.00
2019-05-23T19:26:04.986Z,2.30
2019-05-23T19:28:33.942Z,1.83
2019-05-23T19:31:03.258Z,2.30
2019-05-23T19:33:33.312Z,2.20
2019-05-23T19:36:02.476Z,1.97
2019-05-23T19:38:31.516Z,1.77
2019-05-23T19:41:01.141Z,1.70
2019-05-23T19:43:30.309Z,1.53
2019-05-23T19:45:59.493Z,1.73
2019-05-23T19:48:28.405Z,2.13
2019-05-23T19:50:57.351Z,2.43
2019-05-23T19:53:26.258Z,2.00
2019-05-23T19:55:55.688Z,2.07
2019-05-23T19:58:24.696Z,2.10
2019-05-23T20:00:53.937Z,2.00
2019-05-23T20:03:23.534Z,2.20
2019-05-23T20:05:57.562Z,2.27
2019-05-23T20:08:31.549Z,2.23
2019-05-23T20:11:00.610Z,2.20
2019-05-23T20:13:29.610Z,1.80
2019-05-23T20:15:59.342Z,2.30
2019-05-23T20:18:28.406Z,1.97
2019-05-23T20:20:57.238Z,1.80
2019-05-23T20:23:26.127Z,1.73
2019-05-23T20:25:55.285Z,2.50
2019-05-23T20:28:24.749Z,2.50
2019-05-23T20:30:54.345Z,2.50
2019-05-23T20:33:23.381Z,3.23
2019-05-23T20:35:52.277Z,2.67
2019-05-23T20:38:21.552Z,2.50
2019-05-23T20:40:50.392Z,2.53
2019-05-23T20:43:19.242Z,2.97
2019-05-23T20:45:48.244Z,2.63
2019-05-23T20:48:17.607Z,3.17
2019-05-23T20:50:46.455Z,2.87
2019-05-23T20:53:15.349Z,3.03
2019-05-23T20:55:44.193Z,2.80
2019-05-23T20:58:13.246Z,2.80
2019-05-23T21:00:49.611Z,2.93
2019-05-23T21:03:20.958Z,2.93
2019-05-23T21:05:49.769Z,3.20
2019-05-23T21:08:18.657Z,3.07
2019-05-23T21:10:48.920Z,3.00
2019-05-23T21:13:18.449Z,3.10
2019-05-23T21:15:47.632Z,3.20
2019-05-23T21:18:16.652Z,2.93
2019-05-23T21:20:45.672Z,3.67
2019-05-23T21:23:14.701Z,3.60
2019-05-23T21:25:47.616Z,3.70
2019-05-23T21:28:16.604Z,3.00
2019-05-23T21:30:45.449Z,3.57
2019-05-23T21:33:14.293Z,3.20
2019-05-23T21:35:43.271Z,4.10
2019-05-23T21:38:12.121Z,3.60
2019-05-23T21:40:43.172Z,3.70
2019-05-23T21:43:12.161Z,3.43
2019-05-23T21:45:41.393Z,3.97
2019-05-23T21:48:10.683Z,3.80
2019-05-23T21:50:39.915Z,3.67
2019-05-23T21:53:09.360Z,3.40
2019-05-23T21:55:42.673Z,4.07
2019-05-23T21:58:13.828Z,3.50
2019-05-23T22:01:07.862Z,3.30
2019-05-23T22:03:48.811Z,3.67
2019-05-23T22:06:19.375Z,3.60
2019-05-23T22:08:50.723Z,3.53
2019-05-23T22:11:19.857Z,3.93
2019-05-23T22:13:48.820Z,3.70
2019-05-23T22:16:18.164Z,3.10
2019-05-23T22:18:47.299Z,3.90
2019-05-23T22:21:16.883Z,3.50
2019-05-23T22:23:45.717Z,3.60
2019-05-23T22:26:14.751Z,2.77
2019-05-23T22:28:43.767Z,4.10
2019-05-23T22:31:12.658Z,3.57
2019-05-23T22:33:53.220Z,4.00
2019-05-23T22:36:23.820Z,3.70
2019-05-23T22:38:53.410Z,3.33
2019-05-23T22:41:23.171Z,4.10
2019-05-23T22:43:54.129Z,3.43
2019-05-23T22:46:24.947Z,4.37
2019-05-23T22:48:54.040Z,4.60
2019-05-23T22:51:23.708Z,3.40
2019-05-23T22:53:52.643Z,3.80
2019-05-23T22:56:21.841Z,3.63
2019-05-23T22:58:51.554Z,3.77
2019-05-23T23:01:22.492Z,3.80
2019-05-23T23:03:51.585Z,3.83
2019-05-23T23:06:20.678Z,3.90
2019-05-23T23:08:49.686Z,4.00
2019-05-23T23:11:18.556Z,4.37
2019-05-23T23:13:48.897Z,3.30
2019-05-23T23:16:17.778Z,4.10
2019-05-23T23:18:48.136Z,3.90
2019-05-23T23:21:17.713Z,3.57
2019-05-23T23:23:46.601Z,4.17
2019-05-23T23:26:15.491Z,4.57
2019-05-23T23:28:44.386Z,4.37
2019-05-23T23:31:13.376Z,3.47
2019-05-23T23:33:42.369Z,4.07
2019-05-23T23:36:11.260Z,4.03
2019-05-23T23:38:41.687Z,4.27
2019-05-23T23:41:10.578Z,3.80
2019-05-23T23:43:57.583Z,3.90
2019-05-23T23:46:29.454Z,3.40
2019-05-23T23:49:16.983Z,4.10
2019-05-23T23:52:22.838Z,3.63
2019-05-23T23:55:09.957Z,4.23
2019-05-23T23:57:57.484Z,3.87
